createdAt,value
2018-12-09T00:00:34.502Z,0.50
2018-12-09T00:03:08.705Z,0.83
2018-12-09T00:05:42.830Z,0.47
2018-12-09T00:08:16.832Z,0.50
2018-12-09T00:10:50.767Z,0.40
2018-12-09T00:13:24.805Z,0.40
2018-12-09T00:15:58.846Z,0.63
2018-12-09T00:18:32.804Z,0.50
2018-12-09T00:21:06.908Z,0.40
2018-12-09T00:23:40.934Z,0.60
2018-12-09T00:26:14.835Z,0.50
2018-12-09T00:28:48.913Z,0.50
2018-12-09T00:31:22.815Z,0.40
2018-12-09T00:33:56.736Z,0.50
2018-12-09T00:36:30.798Z,0.40
2018-12-09T00:39:05.541Z,0.80
2018-12-09T00:41:39.597Z,0.40
2018-12-09T00:44:13.464Z,0.50
2018-12-09T00:46:47.561Z,0.40
2018-12-09T00:49:21.417Z,0.50
2018-12-09T00:51:55.329Z,0.40
2018-12-09T00:54:29.333Z,0.50
2018-12-09T00:57:03.212Z,0.50
2018-12-09T00:59:37.317Z,0.60
2018-12-09T01:02:11.260Z,0.40
2018-12-09T01:04:45.383Z,0.50
2018-12-09T01:07:19.408Z,0.50
2018-12-09T01:09:53.340Z,0.40
2018-12-09T01:12:27.243Z,0.50
2018-12-09T01:15:01.192Z,0.47
2018-12-09T01:17:35.031Z,0.43
2018-12-09T01:20:09.135Z,0.50
2018-12-09T01:22:42.961Z,0.40
2018-12-09T01:25:17.023Z,0.40
2018-12-09T01:27:51.076Z,0.57
2018-12-09T01:30:25.003Z,0.43
2018-12-09T01:32:59.109Z,0.50
2018-12-09T01:35:33.075Z,0.40
2018-12-09T01:38:07.233Z,0.50
2018-12-09T01:40:53.049Z,0.60
2018-12-09T01:43:27.120Z,0.50
2018-12-09T01:46:01.028Z,0.57
2018-12-09T01:48:35.092Z,0.40
2018-12-09T01:51:09.186Z,0.50
2018-12-09T01:54:14.307Z,0.50
2018-12-09T01:56:48.662Z,0.60
2018-12-09T01:59:22.751Z,0.50
2018-12-09T02:01:57.476Z,0.43
2018-12-09T02:04:31.548Z,0.50
2018-12-09T02:07:05.653Z,0.50
2018-12-09T02:09:39.758Z,0.57
2018-12-09T02:12:14.052Z,0.50
2018-12-09T02:14:48.057Z,0.50
2018-12-09T02:17:22.234Z,0.70
2018-12-09T02:19:56.195Z,0.60
2018-12-09T02:22:30.309Z,0.60
2018-12-09T02:25:04.497Z,0.60
2018-12-09T02:27:38.532Z,0.50
2018-12-09T02:30:12.900Z,0.40
2018-12-09T02:32:46.867Z,0.50
2018-12-09T02:35:20.892Z,0.50
2018-12-09T02:37:54.961Z,0.40
2018-12-09T02:40:28.972Z,0.40
2018-12-09T02:43:02.881Z,0.50
2018-12-09T02:45:37.164Z,0.40
2018-12-09T02:48:11.179Z,0.40
2018-12-09T02:50:45.055Z,0.90
2018-12-09T02:53:19.020Z,0.40
2018-12-09T02:55:53.081Z,0.40
2018-12-09T02:58:26.975Z,0.40
2018-12-09T03:01:00.968Z,0.40
2018-12-09T03:03:34.982Z,0.50
2018-12-09T03:06:08.898Z,0.53
2018-12-09T03:08:42.804Z,0.50
2018-12-09T03:11:16.976Z,0.40
2018-12-09T03:13:51.087Z,0.50
2018-12-09T03:16:25.197Z,0.60
2018-12-09T03:18:59.456Z,0.50
2018-12-09T03:21:33.512Z,0.40
2018-12-09T03:24:07.771Z,0.50
2018-12-09T03:26:41.830Z,0.50
2018-12-09T03:29:15.952Z,0.50
2018-12-09T03:31:49.947Z,0.57
2018-12-09T03:34:23.885Z,0.47
2018-12-09T03:36:58.003Z,0.40
2018-12-09T03:39:32.018Z,0.80
2018-12-09T03:42:06.201Z,0.60
2018-12-09T03:44:40.270Z,0.50
2018-12-09T03:47:14.295Z,0.70
2018-12-09T03:49:48.255Z,0.50
2018-12-09T03:52:22.404Z,0.63
2018-12-09T03:54:56.533Z,0.60
2018-12-09T03:57:30.516Z,0.50
2018-12-09T04:00:05.202Z,0.50
2018-12-09T04:02:39.101Z,0.60
2018-12-09T04:05:13.179Z,1.00
2018-12-09T04:07:47.207Z,0.53
2018-12-09T04:10:21.196Z,0.50
2018-12-09T04:12:55.052Z,0.60
2018-12-09T04:15:29.137Z,0.53
2018-12-09T04:18:03.127Z,0.63
2018-12-09T04:20:37.300Z,0.50
2018-12-09T04:23:11.170Z,0.50
2018-12-09T04:25:45.060Z,0.53
2018-12-09T04:28:19.296Z,0.50
2018-12-09T04:30:53.212Z,0.50
2018-12-09T04:33:27.131Z,0.53
2018-12-09T04:36:01.205Z,0.50
2018-12-09T04:38:35.189Z,0.50
2018-12-09T04:41:09.240Z,0.50
2018-12-09T04:43:43.259Z,0.50
2018-12-09T04:46:17.188Z,0.57
2018-12-09T04:48:51.090Z,0.40
2018-12-09T04:51:27.050Z,0.50
2018-12-09T04:54:01.673Z,0.50
2018-12-09T04:56:35.533Z,0.40
2018-12-09T04:59:15.624Z,0.60
2018-12-09T05:01:50.076Z,0.50
2018-12-09T05:04:23.940Z,0.50
2018-12-09T05:06:57.931Z,0.50
2018-12-09T05:09:31.817Z,0.53
2018-12-09T05:12:05.709Z,1.10
2018-12-09T05:14:39.862Z,0.60
2018-12-09T05:17:13.775Z,0.70
2018-12-09T05:19:47.988Z,0.70
2018-12-09T05:22:21.965Z,0.47
2018-12-09T05:24:56.081Z,0.50
2018-12-09T05:27:29.972Z,0.50
2018-12-09T05:30:04.091Z,0.40
2018-12-09T05:32:38.171Z,0.70
2018-12-09T05:35:12.240Z,0.60
2018-12-09T05:37:46.317Z,0.80
2018-12-09T05:40:20.304Z,0.50
2018-12-09T05:42:54.190Z,0.87
2018-12-09T05:45:28.280Z,1.00
2018-12-09T05:48:02.120Z,1.03
2018-12-09T05:50:36.090Z,0.60
2018-12-09T05:53:09.948Z,0.60
2018-12-09T05:55:43.934Z,0.70
2018-12-09T05:58:18.096Z,0.50
2018-12-09T06:00:52.039Z,0.80
2018-12-09T06:03:26.304Z,0.80
2018-12-09T06:06:00.271Z,0.50
2018-12-09T06:08:34.278Z,0.70
2018-12-09T06:11:08.157Z,1.70
2018-12-09T06:13:42.165Z,0.63
2018-12-09T06:16:16.173Z,0.57
2018-12-09T06:18:50.047Z,1.10
2018-12-09T06:21:24.307Z,0.50
2018-12-09T06:23:58.215Z,0.60
2018-12-09T06:26:32.135Z,0.60
2018-12-09T06:29:05.985Z,0.50
2018-12-09T06:31:39.874Z,0.40
2018-12-09T06:34:13.803Z,0.70
2018-12-09T06:36:47.665Z,0.50
2018-12-09T06:39:21.935Z,0.73
2018-12-09T06:41:55.800Z,0.70
2018-12-09T06:44:29.791Z,0.63
2018-12-09T06:47:03.651Z,0.80
2018-12-09T06:49:37.628Z,0.57
2018-12-09T06:52:11.617Z,0.60
2018-12-09T06:54:45.568Z,0.70
2018-12-09T06:57:19.725Z,0.50
2018-12-09T06:59:53.755Z,0.50
2018-12-09T07:02:27.633Z,0.80
2018-12-09T07:05:01.653Z,0.50
2018-12-09T07:07:35.841Z,0.60
2018-12-09T07:10:10.045Z,0.60
2018-12-09T07:12:44.100Z,0.57
2018-12-09T07:15:18.445Z,0.60
2018-12-09T07:17:53.719Z,0.60
2018-12-09T07:20:28.009Z,0.70
2018-12-09T07:23:02.075Z,0.50
2018-12-09T07:25:35.976Z,0.80
2018-12-09T07:28:10.056Z,0.60
2018-12-09T07:30:44.107Z,1.20
2018-12-09T07:33:18.424Z,0.60
2018-12-09T07:35:52.502Z,0.80
2018-12-09T07:38:26.692Z,0.83
2018-12-09T07:41:00.742Z,0.50
2018-12-09T07:43:34.792Z,1.47
2018-12-09T07:46:08.861Z,0.70
2018-12-09T07:48:42.976Z,0.60
2018-12-09T07:51:17.353Z,1.03
2018-12-09T07:53:51.257Z,0.70
2018-12-09T07:56:25.219Z,0.87
2018-12-09T07:58:59.466Z,0.63
2018-12-09T08:01:33.398Z,0.73
2018-12-09T08:04:07.346Z,0.90
2018-12-09T08:06:41.426Z,2.10
2018-12-09T08:09:15.490Z,1.03
2018-12-09T08:11:49.511Z,1.00
2018-12-09T08:14:23.445Z,1.13
2018-12-09T08:16:57.600Z,1.00
2018-12-09T08:19:31.636Z,1.07
2018-12-09T08:22:05.518Z,1.10
2018-12-09T08:24:39.590Z,0.87
2018-12-09T08:27:13.627Z,0.80
2018-12-09T08:29:47.680Z,1.30
2018-12-09T08:32:21.840Z,1.70
2018-12-09T08:34:55.944Z,0.90
2018-12-09T08:37:30.149Z,1.10
2018-12-09T08:40:04.149Z,0.90
2018-12-09T08:42:38.311Z,2.17
2018-12-09T08:45:12.273Z,0.70
2018-12-09T08:47:46.390Z,0.83
2018-12-09T08:50:20.359Z,1.20
2018-12-09T08:52:54.296Z,0.67
2018-12-09T08:55:29.359Z,0.93
2018-12-09T08:58:03.351Z,1.50
2018-12-09T09:00:37.397Z,0.80
2018-12-09T09:03:11.356Z,1.17
2018-12-09T09:05:45.323Z,1.00
2018-12-09T09:08:19.429Z,1.00
2018-12-09T09:10:53.511Z,1.20
2018-12-09T09:13:32.879Z,0.87
2018-12-09T09:16:06.883Z,1.23
2018-12-09T09:18:41.968Z,1.20
2018-12-09T09:21:15.911Z,0.77
2018-12-09T09:23:49.995Z,1.30
2018-12-09T09:26:23.944Z,0.80
2018-12-09T09:28:57.805Z,1.13
2018-12-09T09:31:31.953Z,1.27
2018-12-09T09:34:06.012Z,1.30
2018-12-09T09:36:39.955Z,1.27
2018-12-09T09:39:13.964Z,1.20
2018-12-09T09:41:47.911Z,2.13
2018-12-09T09:44:21.794Z,1.67
2018-12-09T09:46:56.800Z,1.23
2018-12-09T09:49:32.783Z,1.30
2018-12-09T09:52:06.987Z,2.80
2018-12-09T09:54:40.888Z,1.93
2018-12-09T09:57:14.978Z,1.30
2018-12-09T09:59:48.940Z,1.20
2018-12-09T10:02:23.060Z,1.60
2018-12-09T10:04:56.966Z,1.10
2018-12-09T10:07:31.356Z,1.97
2018-12-09T10:10:05.382Z,2.13
2018-12-09T10:12:39.363Z,2.00
2018-12-09T10:15:13.355Z,1.63
2018-12-09T10:17:47.261Z,1.97
2018-12-09T10:20:21.123Z,2.40
2018-12-09T10:22:55.180Z,1.63
2018-12-09T10:25:29.316Z,1.33
2018-12-09T10:28:04.291Z,1.67
2018-12-09T10:30:38.159Z,1.37
2018-12-09T10:33:12.208Z,1.27
2018-12-09T10:35:46.138Z,2.03
2018-12-09T10:38:20.108Z,1.83
2018-12-09T10:40:54.076Z,1.00
2018-12-09T10:43:27.990Z,1.23
2018-12-09T10:46:02.095Z,1.20
2018-12-09T10:48:37.243Z,1.37
2018-12-09T10:51:11.384Z,1.37
2018-12-09T10:53:46.372Z,1.33
2018-12-09T10:56:20.330Z,0.83
2018-12-09T10:58:54.495Z,1.20
2018-12-09T11:01:34.688Z,1.57
2018-12-09T11:04:08.910Z,1.20
2018-12-09T11:06:43.136Z,1.17
2018-12-09T11:09:17.212Z,0.80
2018-12-09T11:11:51.160Z,1.67
2018-12-09T11:14:25.133Z,0.93
2018-12-09T11:16:59.107Z,1.30
2018-12-09T11:19:33.056Z,1.10
2018-12-09T11:22:08.031Z,1.53
2018-12-09T11:24:42.189Z,1.20
2018-12-09T11:27:16.116Z,0.80
2018-12-09T11:29:50.167Z,0.67
2018-12-09T11:32:24.105Z,1.67
2018-12-09T11:34:58.239Z,0.90
2018-12-09T11:37:32.334Z,1.50
2018-12-09T11:40:06.331Z,1.63
2018-12-09T11:42:40.533Z,1.30
2018-12-09T11:45:14.793Z,1.23
2018-12-09T11:47:48.710Z,1.40
2018-12-09T11:50:22.717Z,1.10
2018-12-09T11:52:56.733Z,1.43
2018-12-09T11:55:30.751Z,1.80
2018-12-09T11:58:05.024Z,1.20
2018-12-09T12:00:39.319Z,1.77
2018-12-09T12:03:13.389Z,1.87
2018-12-09T12:05:47.429Z,1.70
2018-12-09T19:01:14.039Z,1.90
2018-12-09T19:03:48.287Z,1.43
2018-12-09T19:06:22.541Z,1.40
2018-12-09T19:08:56.501Z,1.77
2018-12-09T19:11:30.800Z,0.90
2018-12-09T19:14:04.817Z,1.43
2018-12-09T19:16:38.946Z,1.00
2018-12-09T19:19:13.087Z,1.67
2018-12-09T19:21:47.098Z,1.47
2018-12-09T19:24:21.355Z,1.70
2018-12-09T19:26:55.443Z,1.57
2018-12-09T19:29:30.306Z,2.23
2018-12-09T19:32:04.467Z,1.13
2018-12-09T19:34:38.459Z,1.70
2018-12-09T19:37:12.811Z,2.13
2018-12-09T19:39:47.164Z,2.53
2018-12-09T19:42:21.355Z,2.80
2018-12-09T19:44:55.516Z,2.53
2018-12-09T19:47:29.604Z,1.87
2018-12-09T19:50:03.743Z,2.47
2018-12-09T19:52:37.776Z,1.17
2018-12-09T19:55:11.876Z,1.80
2018-12-09T19:57:45.957Z,1.63
2018-12-09T20:00:20.124Z,1.60
2018-12-09T20:02:54.544Z,1.60
2018-12-09T20:05:28.721Z,1.63
2018-12-09T20:08:02.744Z,1.53
2018-12-09T20:10:36.932Z,2.40
2018-12-09T20:13:10.988Z,1.37
2018-12-09T20:15:45.109Z,1.60
2018-12-09T20:18:20.398Z,1.80
2018-12-09T20:20:56.093Z,1.77
2018-12-09T20:23:30.302Z,1.57
2018-12-09T20:26:04.380Z,2.30
2018-12-09T20:28:39.042Z,2.03
2018-12-09T20:31:13.254Z,2.37
2018-12-09T20:33:47.662Z,1.27
2018-12-09T20:36:22.295Z,1.33
2018-12-09T20:38:57.819Z,1.53
2018-12-09T20:41:31.878Z,1.00
2018-12-09T20:44:09.132Z,1.30
2018-12-09T20:46:43.272Z,0.90
2018-12-09T20:49:17.231Z,1.87
2018-12-09T20:51:51.316Z,1.43
2018-12-09T20:54:25.433Z,1.03
2018-12-09T20:56:59.447Z,1.43
2018-12-09T20:59:33.431Z,1.23
2018-12-09T21:02:07.545Z,1.50
2018-12-09T21:04:41.694Z,1.73
2018-12-09T21:07:15.734Z,2.00
2018-12-09T21:09:49.733Z,1.57
2018-12-09T21:12:23.963Z,1.73
2018-12-09T21:14:57.913Z,1.93
2018-12-09T21:17:32.134Z,1.63
2018-12-09T21:20:06.511Z,2.27
2018-12-09T21:22:40.700Z,1.97
2018-12-09T21:25:14.661Z,2.13
2018-12-09T21:27:48.826Z,1.93
2018-12-09T21:30:23.175Z,1.23
2018-12-09T21:32:57.285Z,1.73
2018-12-09T21:35:31.472Z,1.77
2018-12-09T21:38:05.775Z,0.90
2018-12-09T21:40:39.895Z,1.90
2018-12-09T21:43:14.218Z,2.50
2018-12-09T21:45:48.414Z,1.87
2018-12-09T21:48:22.743Z,1.93
2018-12-09T21:50:56.839Z,2.10
2018-12-09T21:53:30.942Z,2.40
2018-12-09T21:56:04.984Z,1.80
2018-12-09T21:58:39.050Z,1.70
2018-12-09T22:01:13.141Z,2.17
2018-12-09T22:03:47.067Z,1.80
2018-12-09T22:06:22.987Z,1.77
2018-12-09T22:08:57.008Z,1.90
2018-12-09T22:11:31.078Z,2.53
2018-12-09T22:14:05.016Z,2.00
2018-12-09T22:16:39.057Z,1.63
2018-12-09T22:19:13.071Z,2.20
2018-12-09T22:21:47.082Z,2.53
2018-12-09T22:24:21.090Z,2.87
2018-12-09T22:26:55.127Z,2.47
2018-12-09T22:29:28.997Z,2.10
2018-12-09T22:32:02.950Z,2.00
2018-12-09T22:34:36.963Z,1.70
2018-12-09T22:37:11.049Z,2.80
2018-12-09T22:39:44.941Z,2.10
2018-12-09T22:42:19.031Z,3.20
2018-12-09T22:44:53.101Z,2.37
2018-12-09T22:47:27.059Z,2.67
2018-12-09T22:50:00.984Z,2.23
2018-12-09T22:52:34.897Z,2.50
